Аэропорт: Аулие-Ата. Тараз

ICAO: UADD

METAR:
2020-10-24 05:00:00
UADD 240500Z VRB01MPS 9999 NSC 05/M05 Q1028 R13/0///65 NOSIG RMK QFE713/0951
METAR:
2020-10-24 02:00:00
TAF UADD 240200Z 2403/2412 02003G08MPS 9999 BKN100